createdAt,value
2023-02-02T00:00:21.598Z,16.30
2023-02-02T00:02:48.114Z,16.97
2023-02-02T00:05:14.786Z,16.30
2023-02-02T00:07:41.238Z,16.30
2023-02-02T00:10:08.501Z,17.23
2023-02-02T00:12:34.955Z,15.20
2023-02-02T00:15:01.492Z,17.23
2023-02-02T00:17:27.952Z,12.90
2023-02-02T00:19:54.428Z,14.33
2023-02-02T00:22:20.847Z,14.73
2023-02-02T00:24:47.315Z,16.17
2023-02-02T00:27:13.851Z,17.97
2023-02-02T00:29:40.403Z,16.73
2023-02-02T00:32:06.871Z,17.60
2023-02-02T00:34:33.740Z,12.27
2023-02-02T00:37:00.241Z,14.03
2023-02-02T00:39:28.050Z,14.90
2023-02-02T00:41:55.064Z,20.30
2023-02-02T00:44:40.740Z,16.30
2023-02-02T00:47:07.401Z,20.47
2023-02-02T00:49:33.909Z,16.83
2023-02-02T00:52:00.486Z,15.87
2023-02-02T00:54:27.865Z,19.87
2023-02-02T00:56:54.671Z,15.30
2023-02-02T00:59:21.193Z,13.83
2023-02-02T01:01:47.756Z,15.63
2023-02-02T01:04:14.269Z,16.00
2023-02-02T01:06:40.776Z,17.20
2023-02-02T01:09:08.276Z,20.07
2023-02-02T01:11:34.778Z,13.00
2023-02-02T01:14:01.430Z,21.03
2023-02-02T01:16:28.162Z,13.67
2023-02-02T01:18:54.730Z,18.37
2023-02-02T01:21:22.520Z,14.37
2023-02-02T01:23:50.271Z,13.10
2023-02-02T01:26:17.396Z,18.03
2023-02-02T01:28:44.423Z,17.23
2023-02-02T01:31:16.908Z,15.73
2023-02-02T01:33:44.773Z,15.63
2023-02-02T01:36:14.566Z,12.37
2023-02-02T01:38:42.341Z,26.30
2023-02-02T01:41:13.222Z,16.03
2023-02-02T01:43:45.926Z,18.03
2023-02-02T01:46:16.543Z,15.97
2023-02-02T01:49:17.845Z,20.17
2023-02-02T01:51:52.686Z,17.47
2023-02-02T01:54:31.475Z,10.87
2023-02-02T01:57:03.393Z,19.27
2023-02-02T01:59:31.398Z,10.63
2023-02-02T02:01:58.911Z,15.97
2023-02-02T02:04:27.508Z,14.03
2023-02-02T02:06:54.002Z,17.00
2023-02-02T02:09:20.981Z,16.73
2023-02-02T02:11:47.849Z,14.07
2023-02-02T02:14:35.064Z,14.60
2023-02-02T02:17:17.389Z,13.87
2023-02-02T02:20:30.024Z,15.00
2023-02-02T02:23:36.754Z,17.93
2023-02-02T02:26:33.667Z,16.60
2023-02-02T02:29:25.200Z,15.00
2023-02-02T02:32:09.595Z,20.57
2023-02-02T02:34:58.138Z,17.10
2023-02-02T02:37:51.309Z,12.37
2023-02-02T02:40:31.900Z,16.90
2023-02-02T02:43:03.545Z,18.47
2023-02-02T02:45:31.771Z,17.20
2023-02-02T02:47:58.603Z,17.70
2023-02-02T02:50:26.086Z,17.47
2023-02-02T02:53:15.397Z,13.50
2023-02-02T02:56:03.066Z,9.80
2023-02-02T02:58:45.789Z,17.57
2023-02-02T03:01:21.572Z,11.70
2023-02-02T03:04:28.680Z,19.30
2023-02-02T03:07:01.665Z,14.53
2023-02-02T03:09:36.932Z,16.03
2023-02-02T03:12:03.521Z,7.30
2023-02-02T03:14:34.943Z,8.90
2023-02-02T03:17:02.968Z,13.10
2023-02-02T03:19:29.455Z,11.97
2023-02-02T03:21:55.973Z,14.43
2023-02-02T03:24:22.399Z,10.57
2023-02-02T03:26:48.998Z,15.27
2023-02-02T03:29:16.675Z,17.03
2023-02-02T03:31:43.249Z,16.83
2023-02-02T03:34:09.729Z,10.43
2023-02-02T03:36:36.200Z,11.93
2023-02-02T03:39:02.642Z,11.50
2023-02-02T03:41:29.088Z,11.10
2023-02-02T03:43:55.525Z,11.70
2023-02-02T03:46:22.053Z,8.40
2023-02-02T03:48:48.557Z,17.97
2023-02-02T03:51:15.567Z,13.40
2023-02-02T03:53:47.411Z,13.97
2023-02-02T03:56:14.260Z,10.63
2023-02-02T03:58:40.707Z,12.17
2023-02-02T04:01:11.337Z,7.97
2023-02-02T04:03:37.855Z,9.07
2023-02-02T04:06:04.549Z,18.33
2023-02-02T04:08:31.541Z,7.70
2023-02-02T04:10:58.164Z,11.43
2023-02-02T04:13:24.658Z,13.57
2023-02-02T04:16:01.605Z,8.47
2023-02-02T04:18:28.875Z,10.20
2023-02-02T04:21:01.791Z,10.73
2023-02-02T04:23:29.368Z,16.27
2023-02-02T04:25:56.883Z,14.50
2023-02-02T04:28:23.967Z,14.97
2023-02-02T04:30:51.271Z,9.20
2023-02-02T04:33:17.752Z,15.23
2023-02-02T04:35:44.466Z,10.53
2023-02-02T04:38:11.436Z,11.77
2023-02-02T04:40:39.942Z,12.57
2023-02-02T04:43:06.441Z,15.50
2023-02-02T04:45:34.088Z,9.50
2023-02-02T04:48:00.847Z,15.13
2023-02-02T04:50:27.415Z,12.47
2023-02-02T04:52:53.850Z,17.57
2023-02-02T04:55:20.352Z,10.20
2023-02-02T04:57:46.827Z,13.30
2023-02-02T05:00:13.893Z,11.37
2023-02-02T05:02:41.494Z,14.00
2023-02-02T05:05:10.915Z,14.83
2023-02-02T05:07:37.625Z,13.40
2023-02-02T05:10:04.804Z,12.43
2023-02-02T05:12:31.240Z,9.07
2023-02-02T05:15:00.905Z,14.13
2023-02-02T05:17:27.844Z,17.80
2023-02-02T05:19:54.432Z,11.47
2023-02-02T05:22:20.870Z,11.90
2023-02-02T05:24:47.333Z,13.27
2023-02-02T05:27:13.915Z,14.60
2023-02-02T05:29:40.408Z,15.63
2023-02-02T05:32:06.897Z,13.20
2023-02-02T05:34:33.389Z,16.70
2023-02-02T05:36:59.807Z,16.40
2023-02-02T05:39:26.237Z,12.70
2023-02-02T05:41:52.689Z,13.07
2023-02-02T05:44:19.172Z,13.20
2023-02-02T05:46:46.006Z,15.60
2023-02-02T05:49:14.239Z,15.20
2023-02-02T05:51:47.260Z,13.17
2023-02-02T05:54:19.185Z,14.73
2023-02-02T05:56:50.109Z,12.27
2023-02-02T05:59:17.834Z,12.57
2023-02-02T06:01:45.732Z,14.17
2023-02-02T06:04:12.611Z,10.13
2023-02-02T06:06:39.867Z,17.07
2023-02-02T06:09:07.288Z,13.90
2023-02-02T06:11:34.603Z,16.33
2023-02-02T06:14:01.048Z,11.43
2023-02-02T06:16:27.490Z,14.53
2023-02-02T06:18:54.029Z,13.50
2023-02-02T06:21:24.843Z,13.10
2023-02-02T06:23:54.150Z,10.87
2023-02-02T06:26:20.654Z,13.60
2023-02-02T06:28:52.660Z,17.27
2023-02-02T06:31:20.280Z,20.50
2023-02-02T06:33:54.878Z,20.27
2023-02-02T06:36:22.354Z,12.27
2023-02-02T06:38:56.160Z,16.73
2023-02-02T06:41:23.451Z,17.53
2023-02-02T06:43:50.831Z,11.07
2023-02-02T06:46:17.727Z,18.40
2023-02-02T06:48:44.258Z,19.77
2023-02-02T06:51:10.697Z,13.73
2023-02-02T06:53:37.142Z,15.57
2023-02-02T06:56:06.172Z,16.80
2023-02-02T06:58:34.445Z,19.83
2023-02-02T07:01:06.535Z,17.10
2023-02-02T07:03:34.214Z,17.63
2023-02-02T07:06:14.494Z,19.43
2023-02-02T07:08:41.426Z,19.27
2023-02-02T07:11:13.235Z,17.30
2023-02-02T07:13:42.179Z,18.07
2023-02-02T07:16:12.826Z,20.57
2023-02-02T07:18:39.637Z,12.97
2023-02-02T07:21:06.970Z,16.60
2023-02-02T07:23:33.999Z,17.10
2023-02-02T07:26:09.049Z,18.17
2023-02-02T07:28:36.311Z,15.47
2023-02-02T07:31:15.284Z,15.17
2023-02-02T07:33:42.829Z,15.63
2023-02-02T07:36:10.992Z,14.40
2023-02-02T07:38:37.844Z,17.70
2023-02-02T07:41:04.895Z,13.73
2023-02-02T07:43:31.631Z,13.70
2023-02-02T07:46:02.916Z,15.20
2023-02-02T07:48:30.757Z,17.80
2023-02-02T07:51:01.787Z,15.97
2023-02-02T07:53:28.713Z,21.40
2023-02-02T07:56:06.463Z,16.00
2023-02-02T07:58:33.027Z,21.53
2023-02-02T08:01:05.011Z,15.70
2023-02-02T08:03:31.756Z,12.73
2023-02-02T08:05:59.226Z,14.23
2023-02-02T08:08:25.956Z,17.07
2023-02-02T08:10:53.600Z,18.60
2023-02-02T08:13:20.777Z,17.97
2023-02-02T08:15:47.312Z,15.83
2023-02-02T08:18:13.832Z,13.37
2023-02-02T08:20:40.318Z,18.07
2023-02-02T08:23:13.405Z,17.53
2023-02-02T08:25:40.197Z,13.63
2023-02-02T08:28:06.686Z,17.00
2023-02-02T08:30:35.124Z,16.40
2023-02-02T08:33:01.603Z,18.77
2023-02-02T08:35:28.215Z,15.43
2023-02-02T08:37:54.657Z,8.50
2023-02-02T08:40:21.167Z,14.10
2023-02-02T08:42:51.079Z,14.13
2023-02-02T08:46:02.150Z,8.60
2023-02-02T08:48:11.798Z,10.30
2023-02-02T08:50:39.087Z,9.67
2023-02-02T08:53:05.672Z,8.33
2023-02-02T08:55:32.101Z,11.40
2023-02-02T08:57:58.606Z,11.07
2023-02-02T09:00:25.529Z,11.23
2023-02-02T09:02:54.820Z,15.63
2023-02-02T09:05:21.263Z,9.93
2023-02-02T09:07:49.276Z,10.23
2023-02-02T09:10:16.156Z,8.23
2023-02-02T09:12:42.723Z,12.03
2023-02-02T09:15:09.597Z,10.77
2023-02-02T09:17:36.441Z,7.50
2023-02-02T09:20:03.172Z,10.60
2023-02-02T09:22:29.747Z,9.77
2023-02-02T09:24:56.286Z,8.37
2023-02-02T09:27:22.849Z,11.73
2023-02-02T09:29:49.517Z,10.00
2023-02-02T09:32:15.969Z,11.17
2023-02-02T09:34:42.385Z,8.93
2023-02-02T09:37:08.894Z,6.83
2023-02-02T09:39:35.340Z,7.90
2023-02-02T09:42:46.398Z,6.30
2023-02-02T09:45:31.644Z,8.23
2023-02-02T09:48:18.151Z,6.77
2023-02-02T09:50:57.491Z,8.23
2023-02-02T09:53:31.528Z,10.33
2023-02-02T09:56:03.918Z,9.73
2023-02-02T09:58:30.344Z,10.63
2023-02-02T10:01:10.190Z,10.90
2023-02-02T10:04:01.978Z,10.40
2023-02-02T10:06:40.741Z,7.03
2023-02-02T10:09:35.049Z,11.53
2023-02-02T10:12:27.203Z,10.80
2023-02-02T10:15:15.609Z,9.97
2023-02-02T10:17:50.002Z,10.33
2023-02-02T10:20:25.993Z,10.83
2023-02-02T10:22:57.329Z,9.13
2023-02-02T10:25:27.692Z,10.07
2023-02-02T10:28:06.132Z,11.07
2023-02-02T10:31:00.300Z,11.13
2023-02-02T10:33:39.853Z,7.37
2023-02-02T10:36:42.389Z,14.70
2023-02-02T10:39:58.162Z,7.60
2023-02-02T10:42:30.545Z,11.97
2023-02-02T10:45:00.328Z,9.17
2023-02-02T10:47:33.522Z,15.97
2023-02-02T10:50:16.623Z,14.93
2023-02-02T10:52:50.296Z,9.30
2023-02-02T10:55:22.576Z,8.63
2023-02-02T10:58:13.865Z,10.00
2023-02-02T11:00:51.353Z,12.07
2023-02-02T11:03:20.114Z,9.40
2023-02-02T11:06:05.721Z,11.07
2023-02-02T11:08:36.127Z,12.53
2023-02-02T11:11:22.060Z,10.37
2023-02-02T11:13:51.740Z,7.20
2023-02-02T11:16:23.447Z,9.47
2023-02-02T11:18:50.151Z,9.73
2023-02-02T11:21:18.756Z,7.33
2023-02-02T11:24:02.375Z,5.97
2023-02-02T11:26:43.593Z,6.40
2023-02-02T11:29:16.194Z,8.87
2023-02-02T11:31:48.839Z,7.00
2023-02-02T11:34:24.750Z,6.03
2023-02-02T11:37:00.188Z,6.37
2023-02-02T11:39:26.817Z,8.27
2023-02-02T11:42:07.501Z,10.07
2023-02-02T11:44:35.780Z,7.43
2023-02-02T11:47:04.805Z,9.80
2023-02-02T11:49:37.816Z,5.40
2023-02-02T11:52:07.543Z,5.47
2023-02-02T11:54:36.998Z,8.07
2023-02-02T11:57:08.884Z,5.53
2023-02-02T11:59:42.485Z,6.13
2023-02-02T12:02:25.074Z,6.47
2023-02-02T12:05:16.203Z,9.73
2023-02-02T12:07:44.407Z,9.80
2023-02-02T12:10:19.487Z,7.87
2023-02-02T12:13:08.355Z,7.10
2023-02-02T12:15:53.158Z,10.87
2023-02-02T12:18:47.475Z,7.70
2023-02-02T12:21:22.852Z,7.50
2023-02-02T12:24:03.345Z,6.37
2023-02-02T12:26:33.284Z,9.00
2023-02-02T12:29:03.578Z,6.40
2023-02-02T12:31:42.754Z,4.63
2023-02-02T12:34:20.278Z,6.10
2023-02-02T12:37:13.619Z,9.33
2023-02-02T12:40:04.954Z,7.50
2023-02-02T12:42:51.542Z,6.07
2023-02-02T12:45:42.061Z,9.50
2023-02-02T12:48:20.509Z,7.40
2023-02-02T12:51:08.534Z,7.00
2023-02-02T12:54:33.082Z,6.33
2023-02-02T12:56:52.671Z,3.83
2023-02-02T12:59:53.539Z,6.97
2023-02-02T13:02:32.225Z,3.70
2023-02-02T13:05:09.170Z,7.23
2023-02-02T13:07:41.411Z,5.13
2023-02-02T13:10:28.776Z,7.77
2023-02-02T13:12:59.992Z,5.57
2023-02-02T13:15:35.759Z,6.30
2023-02-02T13:18:08.501Z,8.67
2023-02-02T13:20:43.818Z,6.07
2023-02-02T13:23:27.586Z,7.80
2023-02-02T13:26:02.060Z,7.40
2023-02-02T13:28:48.295Z,7.43
2023-02-02T13:31:22.003Z,6.07
2023-02-02T13:34:00.429Z,8.67
2023-02-02T13:36:36.011Z,9.27
2023-02-02T13:39:12.465Z,10.83
2023-02-02T13:41:39.697Z,6.87
2023-02-02T13:44:24.740Z,8.07
2023-02-02T13:47:08.997Z,8.93
2023-02-02T13:49:41.802Z,11.77
2023-02-02T13:52:23.198Z,8.17
2023-02-02T13:55:15.980Z,7.23
2023-02-02T13:58:12.133Z,8.20
2023-02-02T14:00:42.618Z,9.07
2023-02-02T14:03:29.806Z,8.50
2023-02-02T14:06:16.878Z,6.47
2023-02-02T14:08:54.204Z,8.13
2023-02-02T14:11:27.257Z,6.83
2023-02-02T14:14:16.970Z,8.17
2023-02-02T14:16:48.622Z,9.37
2023-02-02T14:19:44.136Z,7.13
2023-02-02T14:22:11.811Z,5.47
2023-02-02T14:24:41.744Z,9.23
2023-02-02T14:27:08.249Z,7.77
2023-02-02T14:29:36.050Z,7.63
2023-02-02T14:32:27.807Z,9.63
2023-02-02T14:34:56.645Z,7.77
2023-02-02T14:37:29.756Z,9.67
2023-02-02T14:40:05.376Z,9.67
2023-02-02T14:43:18.030Z,7.50
2023-02-02T14:45:48.587Z,6.43
2023-02-02T14:48:25.541Z,7.80
2023-02-02T14:50:56.656Z,11.93
2023-02-02T14:53:28.748Z,6.27
2023-02-02T14:56:09.523Z,9.37
2023-02-02T14:58:36.041Z,5.43
2023-02-02T15:01:10.662Z,10.33
2023-02-02T15:03:53.820Z,10.13
2023-02-02T15:06:29.386Z,5.93
2023-02-02T15:09:20.722Z,6.30
2023-02-02T15:12:01.116Z,7.50
2023-02-02T15:14:41.779Z,6.53
2023-02-02T15:17:22.296Z,4.30
2023-02-02T15:19:56.787Z,5.57
2023-02-02T15:22:34.957Z,6.37
2023-02-02T15:25:12.562Z,9.73
2023-02-02T15:27:51.521Z,6.47
2023-02-02T15:30:24.090Z,6.97
2023-02-02T15:32:52.504Z,5.73
2023-02-02T15:35:30.775Z,7.57
2023-02-02T15:38:04.641Z,6.73
2023-02-02T15:40:32.251Z,5.57
2023-02-02T15:43:03.253Z,4.93
2023-02-02T15:45:52.153Z,8.83
2023-02-02T15:48:20.433Z,4.17
2023-02-02T15:50:51.216Z,7.57
2023-02-02T15:53:24.847Z,4.93
2023-02-02T15:55:52.102Z,8.27
2023-02-02T15:58:25.949Z,6.23
2023-02-02T16:01:21.317Z,4.33
2023-02-02T16:03:51.227Z,6.30
2023-02-02T16:06:19.159Z,5.23
2023-02-02T16:08:45.928Z,5.40
2023-02-02T16:11:21.218Z,5.80
2023-02-02T16:14:10.354Z,5.90
2023-02-02T16:16:39.804Z,8.13
2023-02-02T16:19:09.224Z,16.67
2023-02-02T16:21:40.758Z,12.17
2023-02-02T16:24:15.434Z,9.97
2023-02-02T16:26:42.041Z,22.97
2023-02-02T16:29:17.307Z,18.87
2023-02-02T16:31:49.095Z,20.53
2023-02-02T16:34:54.805Z,17.63
2023-02-02T16:37:27.757Z,9.43
2023-02-02T16:39:56.662Z,2.67
2023-02-02T16:42:29.121Z,10.53
2023-02-02T16:44:57.076Z,4.50
2023-02-02T16:47:26.648Z,5.97
2023-02-02T16:50:08.308Z,7.53
2023-02-02T16:52:48.235Z,5.97
2023-02-02T16:55:18.099Z,20.10
2023-02-02T16:57:47.224Z,15.20
2023-02-02T17:00:31.776Z,31.83
2023-02-02T17:03:08.431Z,12.87
2023-02-02T17:05:51.210Z,9.90
2023-02-02T17:08:31.152Z,8.73
2023-02-02T17:11:23.872Z,10.47
2023-02-02T17:13:51.165Z,5.90
2023-02-02T17:16:20.514Z,4.60
2023-02-02T17:18:47.670Z,9.40
2023-02-02T17:21:20.954Z,6.40
2023-02-02T17:23:51.506Z,6.17
2023-02-02T17:26:18.211Z,6.97
2023-02-02T17:28:44.768Z,7.57
2023-02-02T17:31:15.941Z,6.03
2023-02-02T17:33:45.900Z,5.17
2023-02-02T17:36:13.252Z,7.73
2023-02-02T17:38:39.995Z,8.37
2023-02-02T17:41:07.161Z,5.43
2023-02-02T17:43:35.049Z,9.27
2023-02-02T17:46:03.437Z,7.70
2023-02-02T17:48:30.122Z,10.10
2023-02-02T17:50:56.543Z,10.77
2023-02-02T17:53:23.181Z,14.13
2023-02-02T17:55:51.320Z,9.30
2023-02-02T17:58:18.029Z,12.20
2023-02-02T18:00:53.054Z,12.53
2023-02-02T18:03:26.644Z,10.83
2023-02-02T18:05:53.363Z,14.43
2023-02-02T18:08:19.918Z,8.53
2023-02-02T18:10:46.457Z,8.17
2023-02-02T18:13:19.559Z,9.90
2023-02-02T18:15:46.268Z,8.97
2023-02-02T18:18:12.843Z,7.73
2023-02-02T18:20:43.301Z,10.00
2023-02-02T18:23:09.995Z,7.03
2023-02-02T18:25:37.640Z,7.27
2023-02-02T18:28:04.147Z,7.90
2023-02-02T18:30:30.674Z,10.90
2023-02-02T18:32:57.130Z,9.90
2023-02-02T18:35:25.368Z,9.43
2023-02-02T18:37:52.304Z,9.90
2023-02-02T18:40:18.832Z,10.47
2023-02-02T18:42:46.614Z,9.17
2023-02-02T18:45:13.054Z,8.90
2023-02-02T18:47:41.423Z,13.63
2023-02-02T18:50:08.779Z,11.07
2023-02-02T18:52:35.345Z,10.13
2023-02-02T18:55:01.856Z,10.63
2023-02-02T18:57:31.432Z,12.00
2023-02-02T18:59:57.952Z,8.03
2023-02-02T19:02:25.601Z,9.97
2023-02-02T19:05:10.467Z,8.63
2023-02-02T19:07:54.925Z,9.07
2023-02-02T19:10:23.322Z,7.77
2023-02-02T19:12:56.315Z,9.53
2023-02-02T19:15:24.832Z,12.40
2023-02-02T19:17:53.219Z,9.87
2023-02-02T19:20:27.814Z,8.17
2023-02-02T19:23:12.200Z,13.03
2023-02-02T19:25:46.414Z,11.93
2023-02-02T19:28:25.412Z,11.03
2023-02-02T19:30:54.355Z,8.27
2023-02-02T19:33:21.130Z,14.03
2023-02-02T19:35:52.301Z,9.17
2023-02-02T19:38:20.589Z,10.60
2023-02-02T19:40:47.413Z,8.47
2023-02-02T19:43:13.808Z,19.90
2023-02-02T19:45:40.948Z,34.63
2023-02-02T19:48:26.596Z,68.30
2023-02-02T19:50:54.976Z,108.00
2023-02-02T19:53:25.573Z,18.43
2023-02-02T19:55:52.587Z,19.97
2023-02-02T19:58:28.629Z,10.37
2023-02-02T20:00:57.795Z,10.40
2023-02-02T20:03:35.302Z,9.97
2023-02-02T20:06:03.701Z,6.93
2023-02-02T20:08:40.704Z,6.63
2023-02-02T20:11:32.042Z,11.40
2023-02-02T20:14:00.532Z,5.13
2023-02-02T20:16:42.033Z,10.37
2023-02-02T20:19:24.185Z,11.77
2023-02-02T20:21:52.652Z,8.17
2023-02-02T20:24:25.042Z,10.73
2023-02-02T20:26:55.053Z,11.13
2023-02-02T20:29:28.133Z,10.47
2023-02-02T20:31:56.534Z,5.80
2023-02-02T20:34:26.047Z,7.37
2023-02-02T20:36:57.825Z,7.13
2023-02-02T20:39:39.613Z,11.23
2023-02-02T20:42:06.483Z,6.67
2023-02-02T20:44:34.763Z,9.83
2023-02-02T20:47:01.695Z,15.20
2023-02-02T20:49:31.661Z,8.40
2023-02-02T20:52:00.776Z,10.00
2023-02-02T20:54:27.981Z,9.70
2023-02-02T20:56:54.565Z,8.80
2023-02-02T20:59:21.347Z,8.70
2023-02-02T21:01:49.918Z,7.83
2023-02-02T21:04:17.846Z,9.83
2023-02-02T21:06:44.663Z,10.00
2023-02-02T21:09:11.598Z,10.73
2023-02-02T21:11:38.778Z,9.17
2023-02-02T21:14:05.728Z,8.23
2023-02-02T21:16:32.647Z,10.70
2023-02-02T21:18:59.289Z,7.30
2023-02-02T21:21:25.956Z,11.00
2023-02-02T21:23:53.453Z,11.30
2023-02-02T21:26:23.336Z,9.60
2023-02-02T21:28:49.872Z,8.80
2023-02-02T21:31:18.072Z,13.17
2023-02-02T21:33:46.779Z,9.20
2023-02-02T21:36:29.445Z,9.40
2023-02-02T21:39:15.230Z,11.13
2023-02-02T21:41:41.777Z,11.43
2023-02-02T21:44:17.352Z,10.27
2023-02-02T21:46:45.758Z,12.17
2023-02-02T21:49:21.621Z,12.47
2023-02-02T21:51:48.605Z,10.53
2023-02-02T21:54:18.235Z,12.10
2023-02-02T21:56:44.712Z,10.17
2023-02-02T21:59:14.794Z,9.33
2023-02-02T22:01:41.364Z,11.07
2023-02-02T22:04:24.776Z,9.73
2023-02-02T22:06:59.145Z,9.53
2023-02-02T22:09:38.510Z,10.73
2023-02-02T22:12:20.391Z,10.83
2023-02-02T22:14:48.914Z,13.03
2023-02-02T22:17:22.437Z,11.53
2023-02-02T22:20:00.107Z,12.77
2023-02-02T22:22:32.578Z,12.07
2023-02-02T22:25:03.771Z,10.10
2023-02-02T22:27:43.007Z,15.20
2023-02-02T22:30:27.236Z,14.37
2023-02-02T22:32:54.754Z,12.17
2023-02-02T22:35:21.894Z,9.10
2023-02-02T22:37:48.450Z,12.50
2023-02-02T22:40:16.359Z,9.27
2023-02-02T22:42:43.296Z,10.17
2023-02-02T22:45:09.990Z,10.87
2023-02-02T22:47:36.455Z,10.77
2023-02-02T22:50:02.957Z,10.20
2023-02-02T22:52:29.455Z,11.73
2023-02-02T22:54:55.966Z,12.57
2023-02-02T22:57:22.456Z,14.03
2023-02-02T22:59:48.941Z,13.13
2023-02-02T23:02:15.512Z,12.20
2023-02-02T23:04:42.035Z,14.40
2023-02-02T23:07:08.498Z,14.60
2023-02-02T23:09:35.015Z,8.50
2023-02-02T23:12:01.555Z,10.20
2023-02-02T23:14:27.999Z,8.87
2023-02-02T23:16:54.467Z,13.27
2023-02-02T23:19:20.918Z,10.43
2023-02-02T23:21:47.375Z,12.07
2023-02-02T23:24:13.968Z,12.57
2023-02-02T23:26:40.428Z,11.00
2023-02-02T23:29:06.871Z,11.33
2023-02-02T23:31:33.459Z,11.03
2023-02-02T23:34:00.157Z,12.40
2023-02-02T23:36:26.645Z,11.50
2023-02-02T23:38:53.088Z,12.07
2023-02-02T23:41:20.356Z,8.73
2023-02-02T23:43:46.877Z,8.80
2023-02-02T23:46:13.371Z,13.40
2023-02-02T23:48:40.155Z,10.77
2023-02-02T23:51:06.694Z,11.17
2023-02-02T23:53:33.280Z,8.50
2023-02-02T23:55:59.723Z,10.00
2023-02-02T23:58:26.216Z,8.50
